Time;durP1;ratioP1;P1;durP2;ratioP2;P2;SDS_P1;SDS_P2;PMS_P1;PMS_P2;Temp;Humidity;BMP_temperature;BMP_pressure;BME280_temperature;BME280_humidity;BME280_pressure;Samples;Min_cycle;Max_cycle;Signal;HPM_P1;HPM_P2
2023/05/18 00:01:22;;;;;;;10.10;6.00;;;11.10;99.90;;;;;;5079809;28;20068;-77
2023/05/18 00:03:53;;;;;;;7.32;6.13;;;11.10;99.90;;;;;;5081117;28;20039;-77
2023/05/18 00:06:24;;;;;;;8.80;5.60;;;11.10;99.90;;;;;;5080147;28;20503;-75
2023/05/18 00:08:52;;;;;;;7.25;5.03;;;11.10;99.90;;;;;;5079503;28;20376;-76
2023/05/18 00:11:21;;;;;;;9.30;5.57;;;11.10;99.90;;;;;;5081651;28;20535;-77
2023/05/18 00:13:49;;;;;;;10.52;6.15;;;11.10;99.90;;;;;;5078787;28;20385;-77
2023/05/18 00:16:16;;;;;;;12.82;5.93;;;11.10;99.90;;;;;;5081293;28;20117;-75
2023/05/18 00:18:43;;;;;;;14.20;5.80;;;11.10;99.90;;;;;;5079168;28;20135;-75
2023/05/18 00:21:12;;;;;;;10.88;6.13;;;11.10;99.90;;;;;;5079613;28;20043;-77
2023/05/18 00:23:41;;;;;;;8.70;5.80;;;11.10;99.90;;;;;;5081173;28;20061;-76
2023/05/18 00:26:09;;;;;;;8.23;5.65;;;11.10;99.90;;;;;;5078102;28;20389;-76
2023/05/18 00:28:36;;;;;;;8.23;5.13;;;11.10;99.90;;;;;;5062340;28;20105;-77
2023/05/18 00:31:05;;;;;;;8.52;5.85;;;11.10;99.90;;;;;;5061164;28;20380;-78
2023/05/18 00:33:32;;;;;;;10.90;5.90;;;11.10;99.90;;;;;;5080058;28;20428;-77
2023/05/18 00:36:00;;;;;;;10.05;5.53;;;11.10;99.90;;;;;;5078722;28;20093;-77
2023/05/18 00:38:27;;;;;;;11.10;5.93;;;11.20;99.90;;;;;;5079701;28;20127;-76
2023/05/18 00:40:56;;;;;;;7.47;5.82;;;11.20;99.90;;;;;;5060446;28;20139;-78
2023/05/18 00:43:24;;;;;;;9.00;5.35;;;11.20;99.90;;;;;;5059736;28;20036;-76
2023/05/18 00:45:51;;;;;;;29.55;21.80;;;11.20;99.90;;;;;;5079925;28;20052;-77
2023/05/18 00:48:19;;;;;;;11.13;7.10;;;11.20;99.90;;;;;;5078097;28;20064;-75
2023/05/18 00:50:46;;;;;;;17.10;10.98;;;11.20;99.90;;;;;;5059746;28;20048;-76
2023/05/18 00:53:14;;;;;;;9.88;6.18;;;11.10;99.90;;;;;;5077723;28;20555;-78
2023/05/18 00:55:42;;;;;;;10.00;5.90;;;11.10;99.90;;;;;;5078436;28;20484;-76
2023/05/18 00:58:11;;;;;;;13.48;5.70;;;11.10;99.90;;;;;;5076827;28;20050;-77
2023/05/18 01:00:38;;;;;;;8.52;6.00;;;11.10;99.90;;;;;;5079418;28;20055;-75
2023/05/18 01:03:08;;;;;;;15.38;6.82;;;11.10;99.90;;;;;;5079689;28;20052;-76
2023/05/18 01:05:36;;;;;;;11.88;6.50;;;11.10;99.90;;;;;;5061852;28;20124;-77
2023/05/18 01:08:03;;;;;;;8.60;6.63;;;11.10;99.90;;;;;;5079311;28;20039;-75
2023/05/18 01:10:36;;;;;;;10.38;6.78;;;11.10;99.90;;;;;;5077143;28;20044;-75
2023/05/18 01:13:09;;;;;;;10.70;6.63;;;11.10;99.90;;;;;;5078609;28;20495;-76
2023/05/18 01:15:40;;;;;;;11.27;6.78;;;11.00;99.90;;;;;;5061674;28;20048;-75
2023/05/18 01:18:15;;;;;;;11.25;6.60;;;11.10;99.90;;;;;;5075242;28;20059;-75
2023/05/18 01:20:47;;;;;;;11.32;6.68;;;11.00;99.90;;;;;;5059535;28;20040;-76
2023/05/18 01:23:45;;;;;;;9.40;7.10;;;11.00;99.90;;;;;;5059687;28;20194;-77
2023/05/18 01:26:16;;;;;;;12.05;6.97;;;11.00;99.90;;;;;;5074903;28;20121;-75
2023/05/18 01:28:46;;;;;;;11.05;7.60;;;11.00;99.90;;;;;;5077235;28;20054;-77
2023/05/18 01:31:15;;;;;;;10.38;7.35;;;11.00;99.90;;;;;;5076686;28;20075;-75
2023/05/18 01:33:42;;;;;;;10.52;6.95;;;11.00;99.90;;;;;;5079171;28;20044;-77
2023/05/18 01:36:10;;;;;;;10.52;7.40;;;10.90;99.90;;;;;;5059361;28;20040;-77
2023/05/18 01:38:39;;;;;;;13.98;7.38;;;10.90;99.90;;;;;;5075215;28;20045;-76
2023/05/18 01:41:13;;;;;;;11.57;7.68;;;10.90;99.90;;;;;;5059067;28;20056;-75
2023/05/18 01:43:52;;;;;;;14.40;7.88;;;10.90;99.90;;;;;;5061609;28;20036;-77
2023/05/18 01:46:32;;;;;;;11.77;7.10;;;10.90;99.90;;;;;;5077604;28;20041;-77
2023/05/18 01:49:05;;;;;;;11.90;7.38;;;10.90;99.90;;;;;;5076862;28;20128;-76
2023/05/18 01:51:37;;;;;;;10.52;7.60;;;10.90;99.90;;;;;;5076467;28;20040;-76
2023/05/18 01:54:07;;;;;;;9.68;7.30;;;10.90;99.90;;;;;;5058063;28;20535;-77
2023/05/18 01:56:39;;;;;;;13.50;7.82;;;11.00;99.90;;;;;;5060062;28;20436;-78
2023/05/18 01:59:08;;;;;;;10.70;7.25;;;11.00;99.90;;;;;;5083428;28;20048;-76
2023/05/18 02:01:37;;;;;;;9.02;7.07;;;11.00;99.90;;;;;;5076489;28;20044;-75
2023/05/18 02:04:09;;;;;;;10.45;6.88;;;11.00;99.90;;;;;;5060663;28;20072;-76
2023/05/18 02:06:36;;;;;;;11.60;7.57;;;11.00;99.90;;;;;;5060089;28;20135;-75
2023/05/18 02:09:05;;;;;;;12.68;8.20;;;11.00;99.90;;;;;;5059339;28;20111;-77
2023/05/18 02:11:32;;;;;;;10.63;7.45;;;10.90;99.90;;;;;;5060534;28;20064;-75
2023/05/18 02:14:00;;;;;;;9.30;8.07;;;11.00;99.90;;;;;;5060635;28;20079;-77
2023/05/18 02:16:29;;;;;;;13.85;9.40;;;11.00;99.90;;;;;;5078328;28;20047;-77
2023/05/18 02:18:59;;;;;;;13.93;10.43;;;10.90;99.90;;;;;;5057125;28;20113;-76
2023/05/18 02:21:26;;;;;;;15.18;9.93;;;10.90;99.90;;;;;;5059603;28;20032;-76
2023/05/18 02:23:53;;;;;;;13.77;10.98;;;10.90;99.90;;;;;;5060162;28;20124;-76
2023/05/18 02:26:21;;;;;;;14.57;10.75;;;10.90;99.90;;;;;;5073376;28;20047;-78
2023/05/18 02:28:53;;;;;;;13.07;11.05;;;10.90;99.90;;;;;;5071470;28;20041;-78
2023/05/18 02:31:20;;;;;;;13.50;10.80;;;10.80;99.90;;;;;;5062488;28;20487;-76
2023/05/18 02:33:49;;;;;;;16.25;11.48;;;10.80;99.90;;;;;;5058319;28;20076;-78
2023/05/18 02:36:17;;;;;;;15.63;12.40;;;10.80;99.90;;;;;;5075185;28;20049;-77
2023/05/18 02:38:45;;;;;;;20.90;12.90;;;10.80;99.90;;;;;;5060314;28;20572;-79
2023/05/18 02:41:12;;;;;;;15.35;12.45;;;10.80;99.90;;;;;;5078269;28;20049;-79
2023/05/18 02:43:40;;;;;;;17.55;12.02;;;10.80;99.90;;;;;;5076420;28;20055;-78
2023/05/18 02:46:08;;;;;;;15.10;12.40;;;10.80;99.90;;;;;;5057606;28;20040;-78
2023/05/18 02:48:36;;;;;;;17.33;12.90;;;10.80;99.90;;;;;;5059778;28;20050;-79
2023/05/18 02:51:05;;;;;;;22.45;13.35;;;10.70;99.90;;;;;;5075928;28;20047;-78
2023/05/18 02:53:33;;;;;;;18.45;13.05;;;10.80;99.90;;;;;;5059502;28;20483;-79
2023/05/18 02:56:08;;;;;;;21.13;11.90;;;10.70;99.90;;;;;;5067675;22;20573;-75
2023/05/18 02:58:44;;;;;;;12.75;10.68;;;10.80;99.90;;;;;;5073966;28;20063;-73
2023/05/18 03:01:20;;;;;;;18.00;11.60;;;10.80;99.90;;;;;;5073598;28;20519;-74
2023/05/18 03:03:52;;;;;;;15.45;10.68;;;10.70;99.90;;;;;;5101079;28;20503;-74
2023/05/18 03:06:29;;;;;;;16.73;9.25;;;10.70;99.90;;;;;;5093296;28;20040;-75
2023/05/18 03:08:57;;;;;;;14.60;9.90;;;10.70;99.90;;;;;;5078852;28;20480;-75
2023/05/18 03:11:33;;;;;;;11.70;8.65;;;10.60;99.90;;;;;;5101580;28;20472;-74
2023/05/18 03:14:01;;;;;;;12.60;8.23;;;10.60;99.90;;;;;;5074696;28;20043;-73
2023/05/18 03:16:29;;;;;;;10.13;8.68;;;10.60;99.90;;;;;;5072364;28;20054;-74
2023/05/18 03:18:57;;;;;;;14.00;8.80;;;10.60;99.90;;;;;;5080841;28;20036;-75
2023/05/18 03:21:34;;;;;;;15.18;9.07;;;10.50;99.90;;;;;;5083808;28;20422;-76
2023/05/18 03:24:03;;;;;;;10.23;8.73;;;10.60;99.90;;;;;;5071477;28;20075;-75
2023/05/18 03:26:33;;;;;;;12.23;9.13;;;10.50;99.90;;;;;;5085937;28;20059;-75
2023/05/18 03:29:01;;;;;;;13.82;9.55;;;10.60;99.90;;;;;;5077038;28;20040;-74
2023/05/18 03:31:28;;;;;;;10.70;9.18;;;10.60;99.90;;;;;;5106582;28;20036;-77
2023/05/18 03:33:58;;;;;;;10.73;9.13;;;10.60;99.90;;;;;;5083211;28;20092;-76
2023/05/18 03:36:26;;;;;;;12.88;9.70;;;10.60;99.90;;;;;;5095436;28;20091;-77
2023/05/18 03:38:55;;;;;;;20.02;9.35;;;10.60;99.90;;;;;;5075615;28;20101;-77
2023/05/18 03:41:23;;;;;;;12.02;8.95;;;10.60;99.90;;;;;;5080094;28;20040;-75
2023/05/18 03:43:53;;;;;;;12.07;8.75;;;10.50;99.90;;;;;;5080185;28;20044;-73
2023/05/18 03:46:22;;;;;;;10.48;9.43;;;10.60;99.90;;;;;;5081916;28;20056;-76
2023/05/18 03:48:50;;;;;;;11.20;9.43;;;10.60;99.90;;;;;;5081608;28;20127;-74
2023/05/18 03:51:22;;;;;;;12.23;10.20;;;10.60;99.90;;;;;;5081923;28;20036;-74
2023/05/18 03:53:50;;;;;;;13.93;10.45;;;10.60;99.90;;;;;;5081805;28;20050;-74
2023/05/18 03:56:18;;;;;;;17.55;10.75;;;10.60;99.90;;;;;;5075816;28;20044;-74
2023/05/18 03:58:46;;;;;;;11.40;9.80;;;10.60;99.90;;;;;;5064740;28;20036;-75
2023/05/18 04:01:13;;;;;;;10.80;8.70;;;10.60;99.90;;;;;;5081042;28;20045;-74
2023/05/18 04:03:41;;;;;;;13.65;10.57;;;10.60;99.90;;;;;;5069313;28;20055;-75
2023/05/18 04:06:09;;;;;;;11.70;9.77;;;10.60;99.90;;;;;;5067377;28;20052;-74
2023/05/18 04:08:39;;;;;;;11.65;9.43;;;10.60;99.90;;;;;;5089532;28;20113;-74
2023/05/18 04:11:06;;;;;;;12.05;9.50;;;10.60;99.90;;;;;;5060366;28;20059;-73
2023/05/18 04:13:38;;;;;;;13.77;9.75;;;10.60;99.90;;;;;;5057269;28;20044;-73
2023/05/18 04:16:06;;;;;;;11.68;9.73;;;10.60;99.90;;;;;;5058344;28;20135;-75
2023/05/18 04:18:35;;;;;;;14.63;10.18;;;10.60;99.90;;;;;;5058969;28;20037;-75
2023/05/18 04:21:04;;;;;;;11.55;9.05;;;10.60;99.90;;;;;;5082628;28;20048;-74
2023/05/18 04:23:37;;;;;;;12.95;9.85;;;10.60;99.90;;;;;;5082027;28;20131;-76
2023/05/18 04:26:05;;;;;;;12.13;8.90;;;10.60;99.90;;;;;;5061055;28;20419;-77
2023/05/18 04:28:33;;;;;;;13.00;9.68;;;10.60;99.90;;;;;;5085759;28;20048;-75
2023/05/18 04:31:02;;;;;;;15.35;9.35;;;10.60;99.90;;;;;;5060094;28;20040;-73
2023/05/18 04:33:29;;;;;;;13.90;10.20;;;10.60;99.90;;;;;;5059800;28;20131;-75
2023/05/18 04:35:57;;;;;;;19.67;9.07;;;10.70;99.90;;;;;;5059957;28;20131;-76
2023/05/18 04:38:25;;;;;;;10.60;7.95;;;10.60;99.90;;;;;;5054384;28;20683;-74
2023/05/18 04:40:55;;;;;;;11.93;9.25;;;10.60;99.90;;;;;;5055791;28;20568;-73
2023/05/18 04:43:24;;;;;;;13.65;8.52;;;10.60;99.90;;;;;;5054464;28;20075;-74
2023/05/18 04:45:53;;;;;;;12.63;9.10;;;10.60;99.90;;;;;;5055458;28;20115;-75
2023/05/18 04:48:22;;;;;;;13.55;10.02;;;10.60;99.90;;;;;;5057854;28;20097;-77
2023/05/18 04:50:53;;;;;;;11.02;8.65;;;10.60;99.90;;;;;;5110720;28;20043;-76
2023/05/18 04:53:20;;;;;;;11.75;9.00;;;10.70;99.90;;;;;;5096947;28;20044;-75
2023/05/18 04:55:49;;;;;;;10.77;8.50;;;10.70;99.90;;;;;;5082183;28;20099;-74
2023/05/18 04:58:17;;;;;;;14.15;8.80;;;10.60;99.90;;;;;;5072083;28;20124;-73
2023/05/18 05:00:45;;;;;;;11.18;8.30;;;10.70;99.90;;;;;;5099745;28;20403;-74
2023/05/18 05:03:12;;;;;;;9.40;7.82;;;10.70;99.90;;;;;;5081313;28;20046;-74
2023/05/18 05:05:41;;;;;;;12.10;9.35;;;10.70;99.90;;;;;;5100015;28;20044;-73
2023/05/18 05:08:08;;;;;;;15.27;10.00;;;10.70;99.90;;;;;;5099898;28;20105;-75
2023/05/18 05:10:36;;;;;;;11.93;8.73;;;10.80;99.90;;;;;;5098264;28;20044;-74
2023/05/18 05:13:04;;;;;;;15.15;8.88;;;10.80;99.90;;;;;;5101997;28;20052;-75
2023/05/18 05:15:31;;;;;;;11.27;9.25;;;10.80;99.90;;;;;;5077540;28;20176;-74
2023/05/18 05:17:59;;;;;;;12.18;9.90;;;10.80;99.90;;;;;;5083676;28;20036;-75
2023/05/18 05:20:26;;;;;;;13.32;9.77;;;10.80;99.90;;;;;;5081841;28;20043;-74
2023/05/18 05:22:56;;;;;;;12.98;10.43;;;10.80;99.90;;;;;;5084092;28;20038;-73
2023/05/18 05:25:25;;;;;;;12.43;9.15;;;10.80;99.90;;;;;;5079469;28;20307;-73
2023/05/18 05:27:53;;;;;;;13.60;10.90;;;10.80;99.90;;;;;;5082440;28;20097;-73
2023/05/18 05:30:22;;;;;;;13.77;10.75;;;10.70;99.90;;;;;;5080804;28;20651;-74
2023/05/18 05:32:49;;;;;;;14.18;10.90;;;10.70;99.90;;;;;;5082766;28;20047;-74
2023/05/18 05:35:16;;;;;;;14.82;11.73;;;10.70;99.90;;;;;;5098062;28;20070;-74
2023/05/18 05:37:45;;;;;;;13.85;12.15;;;10.70;99.90;;;;;;5079306;28;20449;-74
2023/05/18 05:40:14;;;;;;;14.88;12.38;;;10.70;99.90;;;;;;5081501;28;20124;-75
2023/05/18 05:42:44;;;;;;;17.45;13.73;;;10.70;99.90;;;;;;5081022;28;20129;-73
2023/05/18 05:45:13;;;;;;;17.73;13.93;;;10.70;99.90;;;;;;5079831;28;20464;-74
2023/05/18 05:47:49;;;;;;;21.60;15.45;;;10.70;99.90;;;;;;5078452;28;20047;-76
2023/05/18 05:50:19;;;;;;;17.15;14.02;;;10.80;99.90;;;;;;5079325;28;20060;-73
2023/05/18 05:52:48;;;;;;;15.15;13.30;;;10.80;99.90;;;;;;5080198;28;20045;-75
2023/05/18 05:55:18;;;;;;;17.15;13.43;;;10.80;99.90;;;;;;5083064;28;20044;-76
2023/05/18 05:57:46;;;;;;;16.30;12.48;;;10.80;99.90;;;;;;5081083;28;20054;-75
2023/05/18 06:00:15;;;;;;;18.92;13.75;;;10.90;99.90;;;;;;5082895;28;20384;-74
2023/05/18 06:02:49;;;;;;;35.22;22.27;;;10.90;99.90;;;;;;5099403;28;20039;-76
2023/05/18 06:05:24;;;;;;;16.50;14.00;;;10.90;99.90;;;;;;5079384;28;20509;-73
2023/05/18 06:07:54;;;;;;;19.08;13.52;;;10.90;99.90;;;;;;5078432;28;20054;-76
2023/05/18 06:10:23;;;;;;;19.77;15.80;;;10.90;99.90;;;;;;5079627;28;20081;-76
2023/05/18 06:12:50;;;;;;;18.58;13.98;;;10.90;99.90;;;;;;5089927;28;20028;-73
2023/05/18 06:15:19;;;;;;;20.17;15.95;;;11.00;99.90;;;;;;5096417;28;20039;-76
2023/05/18 06:17:48;;;;;;;20.80;15.30;;;11.00;99.90;;;;;;5100362;28;20040;-75
2023/05/18 06:20:16;;;;;;;17.10;14.68;;;11.00;99.90;;;;;;5101595;28;20044;-75
2023/05/18 06:22:44;;;;;;;18.13;15.02;;;11.00;99.90;;;;;;5083045;28;20101;-76
2023/05/18 06:25:23;;;;;;;16.83;14.70;;;11.00;99.90;;;;;;5081532;28;20036;-74
2023/05/18 06:28:03;;;;;;;16.35;12.73;;;11.00;99.90;;;;;;5083254;28;20047;-75
2023/05/18 06:30:39;;;;;;;15.18;12.45;;;11.00;99.90;;;;;;5082120;28;20047;-75
2023/05/18 06:33:29;;;;;;;13.65;11.00;;;11.00;99.90;;;;;;5081178;28;20040;-76
2023/05/18 06:35:58;;;;;;;16.35;12.90;;;11.00;99.90;;;;;;5098338;28;20403;-76
2023/05/18 06:38:25;;;;;;;14.05;11.13;;;11.10;99.90;;;;;;5101756;28;20082;-75
2023/05/18 06:40:54;;;;;;;17.42;12.68;;;11.00;99.90;;;;;;5086202;28;20039;-76
2023/05/18 06:43:24;;;;;;;18.90;13.82;;;11.00;99.90;;;;;;5100254;28;20050;-75
2023/05/18 06:46:06;;;;;;;14.45;11.60;;;11.00;99.90;;;;;;5100298;28;20432;-75
2023/05/18 06:48:38;;;;;;;20.73;14.73;;;11.00;99.90;;;;;;5078797;28;20139;-75
2023/05/18 06:51:05;;;;;;;20.30;13.18;;;11.00;99.90;;;;;;5091829;28;20040;-75
2023/05/18 06:53:34;;;;;;;19.42;12.25;;;11.10;99.90;;;;;;5096834;28;20131;-78
2023/05/18 06:56:03;;;;;;;17.08;13.00;;;11.10;99.90;;;;;;5074754;28;20201;-77
2023/05/18 06:58:31;;;;;;;24.08;14.25;;;11.10;99.90;;;;;;5051801;28;20048;-77
2023/05/18 07:01:02;;;;;;;17.83;11.85;;;11.10;99.90;;;;;;5050204;28;20131;-76
2023/05/18 07:03:31;;;;;;;25.20;17.23;;;11.00;99.90;;;;;;5051395;28;20051;-76
2023/05/18 07:06:00;;;;;;;20.58;13.00;;;11.10;99.90;;;;;;5075050;28;20112;-76
2023/05/18 07:08:28;;;;;;;23.63;14.82;;;11.10;99.90;;;;;;5051570;28;20102;-76
2023/05/18 07:10:56;;;;;;;21.88;14.35;;;11.00;99.90;;;;;;5075809;28;20066;-76
2023/05/18 07:13:28;;;;;;;22.17;15.25;;;11.10;99.90;;;;;;5076878;28;20043;-75
2023/05/18 07:15:57;;;;;;;27.60;15.02;;;11.20;99.90;;;;;;5057937;28;20143;-75
2023/05/18 07:18:25;;;;;;;23.20;16.00;;;11.20;99.90;;;;;;5052916;28;20102;-74
2023/05/18 07:20:52;;;;;;;19.50;12.18;;;11.30;99.90;;;;;;5076322;28;20048;-75
2023/05/18 07:23:20;;;;;;;15.73;11.18;;;11.30;99.90;;;;;;5053712;28;20049;-75
2023/05/18 07:25:49;;;;;;;18.20;12.48;;;11.30;99.90;;;;;;5080657;28;20046;-75
2023/05/18 07:28:16;;;;;;;16.17;11.63;;;11.30;99.90;;;;;;5076873;28;20132;-74
2023/05/18 07:30:45;;;;;;;15.60;11.68;;;11.30;99.90;;;;;;5075903;28;20040;-76
2023/05/18 07:33:12;;;;;;;13.23;10.77;;;11.30;99.90;;;;;;5051847;28;20060;-75
2023/05/18 07:35:40;;;;;;;13.70;10.13;;;11.30;99.90;;;;;;5050534;28;20049;-75
2023/05/18 07:38:07;;;;;;;15.57;10.73;;;11.30;99.90;;;;;;5075277;28;20048;-76
2023/05/18 07:40:35;;;;;;;15.02;10.90;;;11.40;99.90;;;;;;5052115;28;20135;-75
2023/05/18 07:43:03;;;;;;;16.70;10.82;;;11.40;99.90;;;;;;5076627;28;20599;-74
2023/05/18 07:45:30;;;;;;;13.68;11.00;;;11.40;99.90;;;;;;5075563;28;20131;-74
2023/05/18 07:48:00;;;;;;;15.43;12.45;;;11.50;99.90;;;;;;5062814;28;20053;-76
2023/05/18 07:50:28;;;;;;;31.15;25.08;;;11.50;99.90;;;;;;5073193;28;20104;-73
2023/05/18 07:52:56;;;;;;;20.33;15.45;;;11.50;99.90;;;;;;5054616;28;20048;-75
2023/05/18 07:55:24;;;;;;;12.50;10.07;;;11.50;99.90;;;;;;5076131;28;20521;-76
2023/05/18 07:57:51;;;;;;;11.82;8.52;;;11.50;99.90;;;;;;5097580;28;20051;-75
2023/05/18 08:00:20;;;;;;;26.50;20.27;;;11.50;99.90;;;;;;5100336;28;20264;-75
2023/05/18 08:02:48;;;;;;;14.38;10.38;;;11.50;99.90;;;;;;5100916;28;20442;-73
2023/05/18 08:05:17;;;;;;;15.30;11.40;;;11.60;99.90;;;;;;5100229;28;20076;-74
2023/05/18 08:07:45;;;;;;;13.30;9.57;;;11.70;99.90;;;;;;5101036;28;20035;-74
2023/05/18 08:10:13;;;;;;;13.18;10.30;;;11.80;99.90;;;;;;5096804;28;20036;-76
2023/05/18 08:12:41;;;;;;;13.60;10.82;;;11.80;99.90;;;;;;5084978;28;20048;-74
2023/05/18 08:15:09;;;;;;;13.98;10.77;;;11.80;99.90;;;;;;5100407;28;20052;-75
2023/05/18 08:17:37;;;;;;;14.05;10.95;;;11.80;99.90;;;;;;5099792;28;20111;-75
2023/05/18 08:20:07;;;;;;;16.92;12.68;;;11.80;99.90;;;;;;5098544;28;20048;-75
2023/05/18 08:22:36;;;;;;;18.50;13.77;;;11.90;99.90;;;;;;5099186;28;20055;-75
2023/05/18 08:25:03;;;;;;;17.13;12.38;;;11.90;99.90;;;;;;5082962;28;20044;-73
2023/05/18 08:27:31;;;;;;;35.20;27.98;;;12.00;99.90;;;;;;5074995;28;20048;-74
2023/05/18 08:29:59;;;;;;;18.42;13.65;;;12.00;99.90;;;;;;5108790;27;20062;-75
2023/05/18 08:32:26;;;;;;;21.67;16.00;;;12.00;99.90;;;;;;5100296;28;20047;-75
2023/05/18 08:34:54;;;;;;;16.13;10.57;;;12.10;99.90;;;;;;5098984;28;20483;-74
2023/05/18 08:37:27;;;;;;;28.08;13.75;;;12.10;99.90;;;;;;5098588;28;20079;-74
2023/05/18 08:39:58;;;;;;;19.35;14.93;;;12.10;99.90;;;;;;5097695;28;20107;-78
2023/05/18 08:42:33;;;;;;;13.45;10.98;;;12.20;99.90;;;;;;5101303;28;20040;-79
2023/05/18 08:45:13;;;;;;;16.63;12.10;;;12.20;99.90;;;;;;5100528;28;20098;-76
2023/05/18 08:47:41;;;;;;;18.45;13.77;;;12.20;99.90;;;;;;5111462;28;20043;-78
2023/05/18 08:50:14;;;;;;;12.90;10.60;;;12.30;99.90;;;;;;5103632;28;20127;-73
2023/05/18 08:52:47;;;;;;;14.52;10.75;;;12.30;99.90;;;;;;5106172;28;20116;-75
2023/05/18 08:55:17;;;;;;;20.13;13.10;;;12.30;99.90;;;;;;5104952;28;20134;-75
2023/05/18 08:57:49;;;;;;;19.65;12.00;;;12.20;99.90;;;;;;5087660;22;20044;-78
2023/05/18 09:00:17;;;;;;;10.57;8.07;;;12.30;99.90;;;;;;5051774;28;20052;-79
2023/05/18 09:02:45;;;;;;;10.82;9.07;;;12.30;99.90;;;;;;5070489;28;20048;-79
2023/05/18 09:05:15;;;;;;;13.20;9.40;;;12.40;99.90;;;;;;5078699;28;20040;-78
2023/05/18 09:07:43;;;;;;;15.05;10.93;;;12.40;99.90;;;;;;5091119;28;20044;-78
2023/05/18 09:10:12;;;;;;;12.85;10.05;;;12.40;99.90;;;;;;5088982;28;20790;-77
2023/05/18 09:12:45;;;;;;;12.85;10.23;;;12.40;99.90;;;;;;5090992;28;20496;-77
2023/05/18 09:15:13;;;;;;;12.52;9.18;;;12.50;99.90;;;;;;5089825;28;20105;-78
2023/05/18 09:17:41;;;;;;;11.50;9.32;;;12.40;99.90;;;;;;5090298;28;20044;-79
2023/05/18 09:20:09;;;;;;;14.95;10.82;;;12.40;99.90;;;;;;5089650;28;20040;-79
2023/05/18 09:22:39;;;;;;;13.95;11.07;;;12.50;99.90;;;;;;5090643;28;20043;-78
2023/05/18 09:25:09;;;;;;;14.35;9.85;;;12.60;99.90;;;;;;5077580;28;20127;-78
2023/05/18 09:27:37;;;;;;;17.90;11.93;;;12.60;99.90;;;;;;5071224;28;20131;-78
2023/05/18 09:30:11;;;;;;;14.15;10.65;;;12.60;99.90;;;;;;5089300;28;20036;-79
2023/05/18 09:32:39;;;;;;;13.57;10.50;;;12.60;99.90;;;;;;5088646;28;20135;-77
2023/05/18 09:35:08;;;;;;;13.35;10.73;;;12.80;99.90;;;;;;5089924;28;20505;-78
2023/05/18 09:37:36;;;;;;;13.50;10.43;;;12.90;99.90;;;;;;5089474;28;20044;-79
2023/05/18 09:40:06;;;;;;;16.02;11.20;;;12.90;99.90;;;;;;5089420;28;20037;-78
2023/05/18 09:42:37;;;;;;;17.65;13.18;;;13.10;99.90;;;;;;5089500;28;20130;-78
2023/05/18 09:45:16;;;;;;;14.75;12.60;;;13.20;99.90;;;;;;5070794;28;20036;-79
2023/05/18 09:47:43;;;;;;;14.55;11.05;;;13.20;99.90;;;;;;5089351;28;20746;-78
2023/05/18 09:50:11;;;;;;;11.80;9.07;;;13.20;99.90;;;;;;5088739;28;20043;-78
2023/05/18 09:52:42;;;;;;;10.40;8.40;;;13.10;99.90;;;;;;5089542;28;20581;-79
2023/05/18 09:55:11;;;;;;;10.30;8.40;;;13.00;99.90;;;;;;5088811;28;20438;-80
2023/05/18 09:57:43;;;;;;;13.95;11.13;;;13.10;99.90;;;;;;5089582;28;20040;-79
2023/05/18 10:00:14;;;;;;;13.23;10.18;;;13.20;99.90;;;;;;5087808;28;20051;-78
2023/05/18 10:02:47;;;;;;;13.55;10.32;;;13.30;99.90;;;;;;5088688;28;20047;-79
2023/05/18 10:05:21;;;;;;;13.50;10.90;;;13.30;99.90;;;;;;5070238;28;20086;-77
2023/05/18 10:07:48;;;;;;;10.90;9.52;;;13.40;99.90;;;;;;5089835;28;20058;-79
2023/05/18 10:10:19;;;;;;;12.20;9.95;;;13.50;99.90;;;;;;5088043;28;20462;-80
2023/05/18 10:12:46;;;;;;;10.10;8.50;;;13.50;99.90;;;;;;5089353;28;20043;-78
2023/05/18 10:15:18;;;;;;;16.40;13.65;;;13.50;99.90;;;;;;5070576;28;20064;-78
2023/05/18 10:17:47;;;;;;;11.65;9.57;;;13.60;99.90;;;;;;5089031;28;20044;-79
2023/05/18 10:20:18;;;;;;;9.77;7.13;;;13.60;99.90;;;;;;5066356;28;20040;-79
2023/05/18 10:22:46;;;;;;;9.75;7.70;;;13.70;99.90;;;;;;5089054;28;20471;-78
2023/05/18 10:25:19;;;;;;;8.57;7.50;;;13.80;99.90;;;;;;5070543;28;20119;-79
2023/05/18 10:27:48;;;;;;;9.55;7.35;;;13.80;99.90;;;;;;5087897;28;20040;-78
2023/05/18 10:30:17;;;;;;;8.85;7.28;;;13.90;99.90;;;;;;5087216;28;20170;-76
2023/05/18 10:32:46;;;;;;;8.02;6.30;;;14.00;99.90;;;;;;5086902;28;20040;-78
2023/05/18 10:35:14;;;;;;;8.13;6.28;;;13.90;99.90;;;;;;5086732;28;20047;-80
2023/05/18 10:37:46;;;;;;;8.05;6.32;;;13.80;99.90;;;;;;5069449;28;20063;-79
2023/05/18 10:40:14;;;;;;;7.80;6.38;;;13.80;99.90;;;;;;5085659;28;20104;-77
2023/05/18 10:42:42;;;;;;;8.50;6.13;;;13.70;99.90;;;;;;5085661;28;20063;-77
2023/05/18 10:45:10;;;;;;;8.02;6.20;;;13.70;99.90;;;;;;5086246;28;20044;-77
2023/05/18 10:47:41;;;;;;;9.63;7.45;;;13.70;99.90;;;;;;5086754;28;20048;-78
2023/05/18 10:50:10;;;;;;;10.10;7.18;;;13.70;99.90;;;;;;5068756;28;20051;-78
2023/05/18 10:52:38;;;;;;;8.77;7.18;;;13.70;99.90;;;;;;5069039;28;20086;-77
2023/05/18 10:55:08;;;;;;;12.02;8.48;;;13.70;99.90;;;;;;5069237;28;20102;-77
2023/05/18 10:57:39;;;;;;;11.38;9.02;;;13.70;99.90;;;;;;5082910;28;20404;-78
2023/05/18 11:00:09;;;;;;;11.57;8.20;;;13.80;99.90;;;;;;5107783;27;20075;-77
2023/05/18 11:02:41;;;;;;;10.93;7.75;;;13.90;99.90;;;;;;5107525;28;20196;-78
2023/05/18 11:05:09;;;;;;;10.95;6.50;;;13.80;99.90;;;;;;5107653;28;20101;-78
2023/05/18 11:07:37;;;;;;;9.32;6.40;;;13.70;99.90;;;;;;5109277;28;20109;-77
2023/05/18 11:10:10;;;;;;;10.32;8.25;;;13.60;99.90;;;;;;5107097;28;20406;-79
2023/05/18 11:12:40;;;;;;;8.40;6.30;;;13.60;99.90;;;;;;5108084;28;20513;-79
2023/05/18 11:15:08;;;;;;;9.05;6.90;;;13.60;99.90;;;;;;5107175;28;20044;-79
2023/05/18 11:17:36;;;;;;;7.82;6.25;;;13.60;99.90;;;;;;5107574;28;20133;-78
2023/05/18 11:20:17;;;;;;;8.50;6.63;;;13.60;99.90;;;;;;5107804;28;20043;-79
2023/05/18 11:22:50;;;;;;;8.68;7.20;;;13.70;99.90;;;;;;5108880;28;20410;-77
2023/05/18 11:25:39;;;;;;;12.60;8.70;;;13.70;99.90;;;;;;5107563;28;20044;-78
2023/05/18 11:28:09;;;;;;;12.00;8.30;;;13.80;99.90;;;;;;5107235;28;20063;-79
2023/05/18 11:30:48;;;;;;;14.20;9.65;;;13.70;99.90;;;;;;5106444;28;20043;-79
2023/05/18 11:33:18;;;;;;;10.35;7.60;;;13.80;99.90;;;;;;5093217;28;20043;-79
2023/05/18 11:36:10;;;;;;;16.25;8.82;;;13.90;99.90;;;;;;5093970;28;20140;-78
2023/05/18 11:38:50;;;;;;;16.88;10.82;;;13.90;99.90;;;;;;5110641;28;20683;-78
2023/05/18 11:41:28;;;;;;;15.00;11.38;;;13.90;99.90;;;;;;5111519;28;20679;-78
2023/05/18 11:44:17;;;;;;;11.18;7.68;;;13.90;99.90;;;;;;5113651;28;20050;-79
2023/05/18 11:46:56;;;;;;;11.32;8.38;;;13.90;99.90;;;;;;5112457;28;20059;-79
2023/05/18 11:49:25;;;;;;;9.73;7.63;;;13.90;99.90;;;;;;5112902;28;20525;-79
2023/05/18 11:51:58;;;;;;;12.30;9.02;;;13.90;99.90;;;;;;5112799;28;20507;-79
2023/05/18 11:54:25;;;;;;;9.88;7.13;;;13.90;99.90;;;;;;5094064;28;20050;-78
2023/05/18 11:56:53;;;;;;;11.20;7.45;;;13.90;99.90;;;;;;5113174;28;20104;-76
2023/05/18 11:59:31;;;;;;;12.15;7.82;;;13.90;99.90;;;;;;5111865;28;20054;-78
2023/05/18 12:02:01;;;;;;;10.18;7.35;;;14.00;99.90;;;;;;5111782;28;20039;-79
2023/05/18 12:04:30;;;;;;;9.38;7.10;;;14.10;99.90;;;;;;5109452;28;20506;-78
2023/05/18 12:07:00;;;;;;;13.70;8.88;;;14.20;99.90;;;;;;5112221;27;20487;-77
2023/05/18 12:09:30;;;;;;;12.40;8.18;;;14.30;99.90;;;;;;5110231;27;20134;-77
2023/05/18 12:11:57;;;;;;;11.63;7.75;;;14.50;99.90;;;;;;5111870;27;20055;-78
2023/05/18 12:14:26;;;;;;;9.82;7.43;;;14.60;99.90;;;;;;5112592;28;20034;-78
2023/05/18 12:16:54;;;;;;;7.05;5.20;;;14.70;99.90;;;;;;5112304;28;20039;-78
2023/05/18 12:19:22;;;;;;;7.10;5.03;;;14.60;99.90;;;;;;5111084;28;20051;-77
2023/05/18 12:21:50;;;;;;;10.25;7.18;;;14.70;99.90;;;;;;5111391;28;20061;-76
2023/05/18 12:24:18;;;;;;;7.35;5.28;;;14.80;99.90;;;;;;5092991;28;20109;-77
2023/05/18 12:26:46;;;;;;;9.52;5.65;;;14.90;99.90;;;;;;5111512;28;20036;-79
2023/05/18 12:29:18;;;;;;;8.10;6.53;;;15.00;99.90;;;;;;5111146;28;20132;-78
2023/05/18 12:31:48;;;;;;;8.50;5.15;;;15.00;99.90;;;;;;5112154;28;20537;-78
2023/05/18 12:34:15;;;;;;;7.72;5.43;;;15.00;99.90;;;;;;5112179;28;20044;-79
2023/05/18 12:36:52;;;;;;;11.00;5.90;;;15.00;99.90;;;;;;5111331;28;20089;-79
2023/05/18 12:39:21;;;;;;;10.05;7.55;;;15.00;99.90;;;;;;5109892;28;20079;-77
2023/05/18 12:41:49;;;;;;;7.18;5.25;;;14.90;99.90;;;;;;5110027;28;20050;-79
2023/05/18 12:44:16;;;;;;;17.90;14.98;;;14.80;99.90;;;;;;5110504;28;20043;-78
2023/05/18 12:46:43;;;;;;;14.52;11.43;;;14.90;99.90;;;;;;5111494;28;20047;-78